Time;durP1;ratioP1;P1;durP2;ratioP2;P2;SDS_P1;SDS_P2;PMS_P1;PMS_P2;Temp;Humidity;BMP_temperature;BMP_pressure;BME280_temperature;BME280_humidity;BME280_pressure;Samples;Min_cycle;Max_cycle;Signal;HPM_P1;HPM_P2
2023/02/05 00:00:10;;;;;;;3.53;2.80;;;1.60;99.90;;;;;;5050145;28;21024;-59
2023/02/05 00:02:38;;;;;;;4.80;2.63;;;1.60;99.90;;;;;;5049420;28;20478;-59
2023/02/05 00:05:07;;;;;;;4.13;2.97;;;1.60;99.90;;;;;;5049596;28;20973;-59
2023/02/05 00:07:36;;;;;;;2.83;2.43;;;1.60;99.90;;;;;;5050233;28;20820;-58
2023/02/05 00:10:04;;;;;;;6.83;2.80;;;1.60;99.90;;;;;;5049507;28;20464;-59
2023/02/05 00:12:32;;;;;;;5.47;2.87;;;1.60;99.90;;;;;;5049942;28;20474;-58
2023/02/05 00:15:01;;;;;;;4.67;2.93;;;1.60;99.90;;;;;;5050693;28;20470;-59
2023/02/05 00:17:29;;;;;;;3.73;2.87;;;1.50;99.90;;;;;;5050567;28;20474;-59
2023/02/05 00:19:57;;;;;;;4.53;2.97;;;1.60;99.90;;;;;;5052781;28;20490;-59
2023/02/05 00:22:26;;;;;;;5.90;4.40;;;1.50;99.90;;;;;;5055081;28;20474;-59
2023/02/05 00:24:54;;;;;;;5.33;4.30;;;1.50;99.90;;;;;;5054967;28;20454;-58
2023/02/05 00:27:22;;;;;;;4.33;3.47;;;1.50;99.90;;;;;;5055202;28;20467;-58
2023/02/05 00:29:50;;;;;;;4.87;3.40;;;1.40;99.90;;;;;;5054832;28;20463;-58
2023/02/05 00:32:18;;;;;;;3.03;2.73;;;1.40;99.90;;;;;;5054027;28;20518;-58
2023/02/05 00:34:46;;;;;;;4.27;2.77;;;1.40;99.90;;;;;;5056839;28;20833;-60
2023/02/05 00:37:14;;;;;;;4.63;2.70;;;1.40;99.90;;;;;;5054892;28;20463;-58
2023/02/05 00:39:44;;;;;;;4.53;2.60;;;1.40;99.90;;;;;;5054270;28;20999;-59
2023/02/05 00:42:12;;;;;;;5.17;2.70;;;1.40;99.90;;;;;;5046477;28;20502;-59
2023/02/05 00:44:40;;;;;;;4.40;2.80;;;1.40;99.90;;;;;;5054697;28;20468;-58
2023/02/05 00:47:08;;;;;;;3.20;2.60;;;1.40;99.90;;;;;;5054619;28;20455;-59
2023/02/05 00:49:36;;;;;;;3.27;2.40;;;1.40;99.90;;;;;;5053085;28;20464;-59
2023/02/05 00:52:05;;;;;;;4.03;2.80;;;1.40;99.90;;;;;;5054503;28;20974;-58
2023/02/05 00:54:33;;;;;;;4.77;2.73;;;1.40;99.90;;;;;;5054534;28;20962;-59
2023/02/05 00:57:02;;;;;;;2.70;2.30;;;1.40;99.90;;;;;;5054385;28;20451;-59
2023/02/05 00:59:30;;;;;;;2.67;2.30;;;1.30;99.90;;;;;;5054094;28;20454;-59
2023/02/05 01:01:58;;;;;;;3.20;2.60;;;1.20;99.90;;;;;;5053748;28;20475;-58
2023/02/05 01:04:27;;;;;;;3.90;2.20;;;1.10;99.90;;;;;;5052875;28;20478;-59
2023/02/05 01:06:55;;;;;;;3.20;2.33;;;1.20;99.90;;;;;;5056137;28;20467;-58
2023/02/05 01:09:23;;;;;;;4.60;2.50;;;1.20;99.90;;;;;;5054219;28;20987;-59
2023/02/05 01:11:51;;;;;;;3.17;2.40;;;1.20;99.90;;;;;;5054027;28;20464;-58
2023/02/05 01:14:21;;;;;;;5.57;2.67;;;1.20;99.90;;;;;;5052708;28;20467;-58
2023/02/05 01:16:49;;;;;;;2.77;2.20;;;1.20;99.90;;;;;;5053891;28;20818;-59
2023/02/05 01:19:17;;;;;;;2.67;2.10;;;1.20;99.90;;;;;;5053879;28;20467;-58
2023/02/05 01:21:45;;;;;;;2.30;2.00;;;1.10;99.90;;;;;;5053658;28;20478;-58
2023/02/05 01:24:13;;;;;;;2.83;2.13;;;1.10;99.90;;;;;;5052652;28;20467;-58
2023/02/05 01:26:41;;;;;;;2.50;1.80;;;1.20;99.90;;;;;;5053660;28;20468;-59
2023/02/05 01:29:09;;;;;;;2.20;2.00;;;1.10;99.90;;;;;;5053746;28;20826;-58
2023/02/05 01:31:38;;;;;;;4.50;2.53;;;1.10;99.90;;;;;;5051682;28;20471;-58
2023/02/05 01:34:06;;;;;;;3.87;2.27;;;1.10;99.90;;;;;;5053489;28;20946;-59
2023/02/05 01:36:34;;;;;;;4.03;2.00;;;1.10;99.90;;;;;;5053622;28;20506;-59
2023/02/05 01:39:03;;;;;;;2.93;2.00;;;1.10;99.90;;;;;;5053423;28;20474;-59
2023/02/05 01:41:31;;;;;;;2.50;2.00;;;1.10;99.90;;;;;;5058892;28;20479;-59
2023/02/05 01:44:07;;;;;;;2.93;2.13;;;1.10;99.90;;;;;;5073420;28;20503;-58
2023/02/05 01:46:38;;;;;;;2.80;2.07;;;1.10;99.90;;;;;;5073480;28;20492;-58
2023/02/05 01:49:10;;;;;;;2.77;1.97;;;1.10;99.90;;;;;;5073346;28;20456;-59
2023/02/05 01:51:39;;;;;;;4.97;2.40;;;1.10;99.90;;;;;;5073157;28;20450;-58
2023/02/05 01:54:08;;;;;;;4.17;2.40;;;1.10;99.90;;;;;;5073538;28;21001;-59
2023/02/05 01:56:39;;;;;;;2.97;2.23;;;1.10;99.90;;;;;;5072043;28;20494;-59
2023/02/05 01:59:11;;;;;;;3.87;2.20;;;1.00;99.90;;;;;;5071864;28;20563;-59
2023/02/05 02:01:43;;;;;;;5.63;2.30;;;1.00;99.90;;;;;;5064128;28;20516;-59
2023/02/05 02:04:13;;;;;;;3.80;2.13;;;1.00;99.90;;;;;;5047670;28;20470;-59
2023/02/05 02:06:41;;;;;;;4.57;2.20;;;1.10;99.90;;;;;;5055262;28;20553;-59
2023/02/05 02:09:09;;;;;;;3.33;2.50;;;1.00;99.90;;;;;;5038590;28;20466;-59
2023/02/05 02:11:41;;;;;;;3.20;2.40;;;1.10;99.90;;;;;;5051372;28;20463;-59
2023/02/05 02:14:11;;;;;;;5.00;2.40;;;1.00;99.90;;;;;;5051691;28;20502;-59
2023/02/05 02:16:41;;;;;;;5.10;2.27;;;1.10;99.90;;;;;;5053055;28;20465;-59
2023/02/05 02:19:17;;;;;;;4.57;2.40;;;1.00;99.90;;;;;;5052302;28;20458;-59
2023/02/05 02:22:11;;;;;;;4.27;2.33;;;1.00;99.90;;;;;;5052550;28;20486;-58
2023/02/05 02:24:58;;;;;;;3.43;2.33;;;1.00;99.90;;;;;;5052672;28;20458;-59
2023/02/05 02:27:40;;;;;;;3.43;2.10;;;1.00;99.90;;;;;;5051386;28;20830;-59
2023/02/05 02:30:15;;;;;;;5.07;2.43;;;1.10;99.90;;;;;;5052725;28;20458;-59
2023/02/05 02:32:50;;;;;;;4.93;2.63;;;1.00;99.90;;;;;;5051799;28;20493;-58
2023/02/05 02:35:27;;;;;;;3.90;2.43;;;1.00;99.90;;;;;;5053262;28;20459;-59
2023/02/05 02:38:02;;;;;;;4.07;2.50;;;1.00;99.90;;;;;;5052200;28;20457;-58
2023/02/05 02:40:37;;;;;;;3.23;2.60;;;1.00;99.90;;;;;;5050900;28;20477;-59
2023/02/05 02:43:12;;;;;;;4.30;2.50;;;1.00;99.90;;;;;;5051198;28;20468;-58
2023/02/05 02:45:45;;;;;;;6.43;3.17;;;1.00;99.90;;;;;;5051083;28;20580;-58
2023/02/05 02:48:17;;;;;;;5.27;2.60;;;1.10;99.90;;;;;;5052555;28;20451;-59
2023/02/05 02:50:50;;;;;;;4.13;2.70;;;1.20;99.90;;;;;;5052375;28;20545;-58
2023/02/05 02:53:22;;;;;;;3.70;3.03;;;1.20;99.90;;;;;;5051232;28;20463;-58
2023/02/05 02:55:56;;;;;;;4.10;2.97;;;1.20;99.90;;;;;;5052458;28;20497;-59
2023/02/05 02:58:30;;;;;;;4.03;3.10;;;1.20;99.90;;;;;;5052456;28;20465;-58
2023/02/05 03:01:00;;;;;;;3.30;2.60;;;1.10;99.90;;;;;;5051745;28;20495;-59
2023/02/05 03:03:32;;;;;;;6.57;3.17;;;1.20;99.90;;;;;;5052308;28;20814;-58
2023/02/05 03:06:04;;;;;;;4.20;2.83;;;1.20;99.90;;;;;;5054845;28;20471;-58
2023/02/05 03:08:36;;;;;;;4.00;2.90;;;1.20;99.90;;;;;;5052108;28;20945;-59
2023/02/05 03:11:10;;;;;;;4.23;2.70;;;1.20;99.90;;;;;;5050838;28;20509;-59
2023/02/05 03:13:40;;;;;;;3.57;2.87;;;1.20;99.90;;;;;;5052418;28;20455;-59
2023/02/05 03:16:09;;;;;;;3.37;2.73;;;1.20;99.90;;;;;;5052265;28;20828;-57
2023/02/05 03:18:38;;;;;;;3.40;2.73;;;1.20;99.90;;;;;;5050736;28;20993;-59
2023/02/05 03:21:12;;;;;;;3.20;2.90;;;1.20;99.90;;;;;;5050858;28;20522;-59
2023/02/05 03:23:40;;;;;;;5.47;3.30;;;1.20;99.90;;;;;;5050788;28;20558;-58
2023/02/05 03:26:27;;;;;;;4.50;3.00;;;1.20;99.90;;;;;;5052153;28;20967;-59
2023/02/05 03:29:07;;;;;;;4.83;2.93;;;1.20;99.90;;;;;;5052503;28;20472;-59
2023/02/05 03:31:48;;;;;;;4.30;2.87;;;1.20;99.90;;;;;;5050662;28;20474;-59
2023/02/05 03:34:26;;;;;;;4.63;2.77;;;1.20;99.90;;;;;;5049960;28;20462;-58
2023/02/05 03:37:03;;;;;;;4.63;2.57;;;1.30;99.90;;;;;;5086013;28;20481;-59
2023/02/05 03:39:45;;;;;;;4.23;2.83;;;1.30;99.90;;;;;;5054311;28;20502;-59
2023/02/05 03:42:27;;;;;;;3.13;2.67;;;1.30;99.90;;;;;;5046762;28;20540;-59
2023/02/05 03:45:19;;;;;;;2.77;2.50;;;1.30;99.90;;;;;;5054446;28;20459;-59
2023/02/05 03:48:11;;;;;;;5.17;2.60;;;1.30;99.90;;;;;;5054277;28;20483;-58
2023/02/05 03:50:43;;;;;;;3.30;2.30;;;1.30;99.90;;;;;;5054151;28;21095;-58
2023/02/05 03:53:25;;;;;;;4.27;2.67;;;1.30;99.90;;;;;;5055810;28;20489;-59
2023/02/05 03:56:01;;;;;;;4.43;2.60;;;1.30;99.90;;;;;;5054222;28;20463;-59
2023/02/05 03:58:34;;;;;;;3.50;2.53;;;1.40;99.90;;;;;;5055641;28;20480;-59
2023/02/05 04:01:07;;;;;;;4.73;2.90;;;1.40;99.90;;;;;;5053451;28;20497;-59
2023/02/05 04:03:36;;;;;;;3.33;2.67;;;1.30;99.90;;;;;;5053778;28;20458;-59
2023/02/05 04:06:05;;;;;;;4.27;2.73;;;1.30;99.90;;;;;;5056351;28;20466;-59
2023/02/05 04:08:34;;;;;;;2.97;2.60;;;1.40;99.90;;;;;;5053743;28;20869;-58
2023/02/05 04:11:03;;;;;;;4.23;2.70;;;1.40;99.90;;;;;;5053814;28;20982;-59
2023/02/05 04:13:32;;;;;;;4.83;2.43;;;1.40;99.90;;;;;;5053758;28;20509;-57
2023/02/05 04:16:02;;;;;;;4.40;2.73;;;1.40;99.90;;;;;;5053881;28;20860;-59
2023/02/05 04:18:31;;;;;;;5.03;2.60;;;1.40;99.90;;;;;;5053576;28;20887;-59
2023/02/05 04:21:00;;;;;;;5.00;2.43;;;1.40;99.90;;;;;;5055042;28;20470;-59
2023/02/05 04:23:32;;;;;;;4.93;2.93;;;1.40;99.90;;;;;;5053528;28;21189;-58
2023/02/05 04:26:01;;;;;;;3.33;2.47;;;1.40;99.90;;;;;;5053723;28;20815;-58
2023/02/05 04:28:35;;;;;;;3.13;2.23;;;1.40;99.90;;;;;;5053505;28;20470;-58
2023/02/05 04:31:07;;;;;;;6.43;2.63;;;1.40;99.90;;;;;;5054358;28;20464;-58
2023/02/05 04:33:37;;;;;;;3.67;2.50;;;1.40;99.90;;;;;;5053128;28;21006;-58
2023/02/05 04:36:07;;;;;;;4.23;2.90;;;1.40;99.90;;;;;;5056044;28;20885;-59
2023/02/05 04:38:35;;;;;;;5.70;2.60;;;1.40;99.90;;;;;;5053825;28;20992;-58
2023/02/05 04:41:04;;;;;;;4.30;2.77;;;1.40;99.90;;;;;;5054760;28;20485;-59
2023/02/05 04:43:32;;;;;;;4.23;2.60;;;1.40;99.90;;;;;;5053977;28;20495;-59
2023/02/05 04:46:05;;;;;;;5.50;2.80;;;1.40;99.90;;;;;;5054815;28;20821;-59
2023/02/05 04:48:33;;;;;;;3.80;2.87;;;1.40;99.90;;;;;;5054641;28;20979;-58
2023/02/05 04:51:07;;;;;;;4.90;2.60;;;1.40;99.90;;;;;;5054490;28;20464;-59
2023/02/05 04:53:36;;;;;;;3.67;2.93;;;1.40;99.90;;;;;;5054615;28;20798;-59
2023/02/05 04:56:06;;;;;;;4.40;3.20;;;1.40;99.90;;;;;;5054718;28;20537;-58
2023/02/05 04:58:34;;;;;;;5.57;2.80;;;1.40;99.90;;;;;;5054044;28;20486;-59
2023/02/05 05:01:03;;;;;;;6.27;3.00;;;1.40;99.90;;;;;;5053889;28;20480;-58
2023/02/05 05:03:31;;;;;;;3.97;3.00;;;1.40;99.90;;;;;;5054087;28;20517;-58
2023/02/05 05:06:04;;;;;;;4.87;2.90;;;1.40;99.90;;;;;;5056738;28;20859;-59
2023/02/05 05:08:33;;;;;;;3.93;2.90;;;1.40;99.90;;;;;;5053818;28;20475;-59
2023/02/05 05:11:06;;;;;;;3.17;2.80;;;1.40;99.90;;;;;;5053930;28;20961;-59
2023/02/05 05:13:35;;;;;;;4.90;3.20;;;1.50;99.90;;;;;;5053877;28;20466;-59
2023/02/05 05:16:05;;;;;;;4.30;2.83;;;1.50;99.90;;;;;;5054323;28;20969;-58
2023/02/05 05:18:34;;;;;;;3.50;2.90;;;1.50;99.90;;;;;;5054057;28;21035;-58
2023/02/05 05:21:03;;;;;;;3.17;2.87;;;1.60;99.90;;;;;;5053861;28;20473;-58
2023/02/05 05:23:34;;;;;;;3.17;2.70;;;1.60;99.90;;;;;;5053962;28;20895;-59
2023/02/05 05:26:05;;;;;;;3.83;3.00;;;1.50;99.90;;;;;;5053722;28;20474;-59
2023/02/05 05:28:33;;;;;;;3.03;2.83;;;1.50;99.90;;;;;;5053937;28;21023;-59
2023/02/05 05:31:07;;;;;;;5.80;3.30;;;1.50;99.90;;;;;;5053377;28;20585;-58
2023/02/05 05:33:35;;;;;;;3.43;3.00;;;1.40;99.90;;;;;;5053250;28;20486;-59
2023/02/05 05:36:04;;;;;;;4.80;2.90;;;1.50;99.90;;;;;;5055873;28;20978;-59
2023/02/05 05:38:33;;;;;;;3.60;3.17;;;1.50;99.90;;;;;;5051599;28;20475;-58
2023/02/05 05:43:47;;;;;;;4.73;3.20;;;1.50;99.90;;;;;;5053457;28;21008;-58
2023/02/05 05:46:20;;;;;;;4.40;3.17;;;1.50;99.90;;;;;;5053730;28;20458;-59
2023/02/05 05:48:49;;;;;;;3.80;3.00;;;1.50;99.90;;;;;;5053445;28;20480;-59
2023/02/05 05:51:18;;;;;;;4.87;3.10;;;1.50;99.90;;;;;;5053359;28;20481;-59
2023/02/05 05:53:48;;;;;;;4.07;3.23;;;1.50;99.90;;;;;;5052723;28;20557;-59
2023/02/05 05:56:17;;;;;;;4.50;3.27;;;1.50;99.90;;;;;;5053188;28;21040;-59
2023/02/05 05:58:45;;;;;;;4.27;3.17;;;1.50;99.90;;;;;;5053346;28;20481;-59
2023/02/05 06:01:15;;;;;;;5.27;3.13;;;1.50;99.90;;;;;;5052720;28;21018;-58
2023/02/05 06:03:43;;;;;;;3.70;2.90;;;1.50;99.90;;;;;;5052921;28;20522;-58
2023/02/05 06:06:12;;;;;;;3.63;3.03;;;1.50;99.90;;;;;;5055654;28;20831;-58
2023/02/05 06:08:40;;;;;;;4.23;3.10;;;1.50;99.90;;;;;;5052804;28;20474;-58
2023/02/05 06:11:10;;;;;;;5.50;3.53;;;1.50;99.90;;;;;;5052826;28;20467;-59
2023/02/05 06:13:38;;;;;;;5.77;3.90;;;1.50;99.90;;;;;;5052790;28;20959;-59
2023/02/05 06:16:07;;;;;;;6.27;3.70;;;1.50;99.90;;;;;;5053177;28;20571;-58
2023/02/05 06:18:35;;;;;;;4.80;3.60;;;1.50;99.90;;;;;;5045912;28;21044;-58
2023/02/05 06:21:04;;;;;;;3.60;2.93;;;1.40;99.90;;;;;;5044925;28;20982;-59
2023/02/05 06:23:33;;;;;;;3.93;3.13;;;1.50;99.90;;;;;;5052224;28;20491;-59
2023/02/05 06:26:01;;;;;;;5.20;3.50;;;1.50;99.90;;;;;;5051496;28;20471;-58
2023/02/05 06:28:30;;;;;;;6.20;3.73;;;1.50;99.90;;;;;;5052446;28;20470;-59
2023/02/05 06:30:58;;;;;;;5.20;3.37;;;1.50;99.90;;;;;;5052046;28;20470;-59
2023/02/05 06:33:26;;;;;;;4.67;3.17;;;1.50;99.90;;;;;;5052245;28;20476;-58
2023/02/05 06:35:54;;;;;;;3.70;3.07;;;1.50;99.90;;;;;;5054329;28;20800;-58
2023/02/05 06:38:22;;;;;;;5.10;3.17;;;1.50;99.90;;;;;;5052858;28;20474;-59
2023/02/05 06:40:50;;;;;;;4.30;3.30;;;1.50;99.90;;;;;;5052869;28;20471;-58
2023/02/05 06:43:18;;;;;;;6.83;4.17;;;1.50;99.90;;;;;;5052797;28;20479;-59
2023/02/05 06:45:48;;;;;;;4.37;3.40;;;1.50;99.90;;;;;;5052363;28;20471;-58
2023/02/05 06:48:17;;;;;;;4.47;3.40;;;1.50;99.90;;;;;;5048669;28;20811;-59
2023/02/05 06:50:45;;;;;;;4.30;3.27;;;1.50;99.90;;;;;;5051574;28;20498;-59
2023/02/05 06:53:13;;;;;;;5.30;3.60;;;1.60;99.90;;;;;;5049834;28;20466;-59
2023/02/05 06:55:41;;;;;;;4.97;3.53;;;1.60;99.90;;;;;;5052532;28;20815;-58
2023/02/05 06:58:09;;;;;;;5.20;3.70;;;1.60;99.90;;;;;;5041980;28;20484;-59
2023/02/05 07:00:37;;;;;;;4.90;3.33;;;1.60;99.90;;;;;;5048253;28;20482;-59
2023/02/05 07:03:06;;;;;;;5.53;3.80;;;1.60;99.90;;;;;;5051407;28;20478;-59
2023/02/05 07:05:34;;;;;;;4.20;3.50;;;1.60;99.90;;;;;;5055505;28;20467;-58
2023/02/05 07:08:05;;;;;;;4.23;3.53;;;1.60;99.90;;;;;;5056147;28;20478;-59
2023/02/05 07:10:33;;;;;;;4.67;3.80;;;1.60;99.90;;;;;;5056497;28;20507;-58
2023/02/05 07:13:01;;;;;;;5.33;3.63;;;1.60;99.90;;;;;;5056553;28;20475;-59
2023/02/05 07:15:34;;;;;;;5.70;4.00;;;1.60;99.90;;;;;;5056174;28;20520;-59
2023/02/05 07:18:06;;;;;;;5.93;4.30;;;1.60;99.90;;;;;;5056033;28;20478;-59
2023/02/05 07:20:34;;;;;;;5.97;3.83;;;1.60;99.90;;;;;;5055971;28;20463;-58
2023/02/05 07:23:04;;;;;;;7.40;4.90;;;1.60;99.90;;;;;;5056295;28;21182;-59
2023/02/05 07:25:35;;;;;;;6.73;4.80;;;1.60;99.90;;;;;;5054249;28;20473;-58
2023/02/05 07:28:04;;;;;;;6.90;4.93;;;1.50;99.90;;;;;;5054775;28;20973;-59
2023/02/05 07:30:32;;;;;;;6.40;4.80;;;1.60;99.90;;;;;;5055339;28;20486;-59
2023/02/05 07:33:02;;;;;;;7.80;5.17;;;1.60;99.90;;;;;;5055529;28;20479;-58
2023/02/05 07:35:33;;;;;;;7.37;5.23;;;1.60;99.90;;;;;;5058385;28;20478;-58
2023/02/05 07:38:02;;;;;;;6.83;5.23;;;1.60;99.90;;;;;;5054179;28;20476;-58
2023/02/05 07:40:30;;;;;;;8.27;5.33;;;1.60;99.90;;;;;;5054515;28;20478;-59
2023/02/05 07:42:58;;;;;;;7.23;4.90;;;1.60;99.90;;;;;;5052850;28;20478;-58
2023/02/05 07:45:26;;;;;;;7.43;4.73;;;1.60;99.90;;;;;;5055273;28;20473;-59
2023/02/05 07:47:54;;;;;;;7.83;4.47;;;1.70;99.90;;;;;;5055162;28;20460;-58
2023/02/05 07:50:22;;;;;;;5.20;4.10;;;1.60;99.90;;;;;;5055209;28;20484;-59
2023/02/05 07:52:51;;;;;;;5.67;4.37;;;1.70;99.90;;;;;;5050746;28;20476;-59
2023/02/05 07:55:19;;;;;;;5.17;3.80;;;1.60;99.90;;;;;;5047421;28;20861;-58
2023/02/05 07:57:47;;;;;;;4.77;4.03;;;1.60;99.90;;;;;;5055012;28;20846;-58
2023/02/05 08:00:16;;;;;;;5.13;4.10;;;1.60;99.90;;;;;;5054793;28;20455;-59
2023/02/05 08:02:44;;;;;;;5.70;4.13;;;1.70;99.90;;;;;;5053245;28;20466;-59
2023/02/05 08:05:12;;;;;;;5.13;4.23;;;1.70;99.90;;;;;;5054845;28;20855;-59
2023/02/05 08:07:40;;;;;;;5.53;4.70;;;1.70;99.90;;;;;;5053541;28;20554;-58
2023/02/05 08:10:10;;;;;;;6.60;4.77;;;1.80;99.90;;;;;;5055353;28;20482;-58
2023/02/05 08:12:38;;;;;;;5.33;4.10;;;1.80;99.90;;;;;;5045730;28;20467;-59
2023/02/05 08:15:07;;;;;;;6.60;4.47;;;1.90;99.90;;;;;;5047375;28;20471;-59
2023/02/05 08:17:35;;;;;;;5.50;4.23;;;1.90;99.90;;;;;;5046321;28;20491;-59
2023/02/05 08:20:06;;;;;;;5.23;4.23;;;2.00;99.90;;;;;;5047908;28;20475;-59
2023/02/05 08:22:36;;;;;;;5.43;4.23;;;1.90;99.90;;;;;;5047046;28;21005;-59
2023/02/05 08:25:05;;;;;;;6.40;4.20;;;1.90;99.90;;;;;;5049970;28;20498;-59
2023/02/05 08:27:36;;;;;;;6.40;5.37;;;2.00;99.90;;;;;;5049580;28;20978;-59
2023/02/05 08:30:04;;;;;;;6.77;5.17;;;1.90;99.90;;;;;;5050052;28;20479;-59
2023/02/05 08:32:33;;;;;;;17.37;10.30;;;1.90;99.90;;;;;;5049085;28;20479;-59
2023/02/05 08:35:01;;;;;;;12.07;8.70;;;2.00;99.90;;;;;;5049734;28;20470;-59
2023/02/05 08:37:29;;;;;;;10.37;7.27;;;2.00;99.90;;;;;;5048779;28;20495;-59
2023/02/05 08:39:57;;;;;;;9.93;7.23;;;2.00;99.90;;;;;;5049803;28;20468;-58
2023/02/05 08:42:25;;;;;;;8.30;6.93;;;2.00;99.90;;;;;;5048083;28;20973;-59
2023/02/05 08:44:57;;;;;;;7.30;6.03;;;2.00;99.90;;;;;;5049467;28;20483;-59
2023/02/05 08:47:26;;;;;;;5.27;4.73;;;2.00;99.90;;;;;;5047645;28;20609;-58
2023/02/05 08:49:54;;;;;;;6.90;4.87;;;2.10;99.90;;;;;;5048120;28;20507;-58
2023/02/05 08:52:22;;;;;;;7.97;5.50;;;2.10;99.90;;;;;;5049041;28;20471;-59
2023/02/05 08:54:50;;;;;;;5.93;4.73;;;2.10;99.90;;;;;;5048366;28;20476;-59
2023/02/05 08:57:18;;;;;;;6.77;5.77;;;2.10;99.90;;;;;;5050095;28;21009;-59
2023/02/05 08:59:47;;;;;;;6.20;5.20;;;2.10;99.90;;;;;;5049169;28;20467;-59
2023/02/05 09:02:16;;;;;;;7.17;5.20;;;2.10;99.90;;;;;;5047105;28;20481;-59
2023/02/05 09:04:44;;;;;;;9.23;6.13;;;2.10;99.90;;;;;;5047970;28;21083;-60
2023/02/05 09:07:13;;;;;;;7.40;5.43;;;2.10;99.90;;;;;;5048805;28;21055;-59
2023/02/05 09:09:42;;;;;;;9.43;5.83;;;2.20;99.90;;;;;;5048744;28;20477;-59
2023/02/05 09:12:10;;;;;;;7.00;6.03;;;2.20;99.90;;;;;;5047203;28;20483;-59
2023/02/05 09:14:38;;;;;;;10.60;7.50;;;2.20;99.90;;;;;;5048795;28;20474;-59
2023/02/05 09:17:09;;;;;;;7.00;6.07;;;2.20;99.90;;;;;;5048634;28;21066;-59
2023/02/05 09:19:40;;;;;;;9.53;6.13;;;2.20;99.90;;;;;;5048781;28;20479;-59
2023/02/05 09:22:09;;;;;;;6.43;5.10;;;2.20;99.90;;;;;;5049392;28;20472;-59
2023/02/05 09:24:37;;;;;;;14.07;9.80;;;2.20;99.90;;;;;;5048540;28;20479;-59
2023/02/05 09:27:06;;;;;;;12.13;10.30;;;2.20;99.90;;;;;;5048232;28;20511;-59
2023/02/05 09:29:34;;;;;;;16.83;11.87;;;2.20;99.90;;;;;;5046828;28;20479;-59
2023/02/05 09:32:02;;;;;;;16.10;10.77;;;2.20;99.90;;;;;;5048376;28;20478;-59
2023/02/05 09:34:32;;;;;;;13.77;9.80;;;2.20;99.90;;;;;;5046732;28;20479;-59
2023/02/05 09:37:01;;;;;;;10.23;7.80;;;2.30;99.90;;;;;;5048823;28;20791;-59
2023/02/05 09:39:30;;;;;;;13.13;9.40;;;2.30;99.90;;;;;;5048419;28;20815;-59
2023/02/05 09:42:31;;;;;;;9.87;7.20;;;2.30;99.90;;;;;;5048597;28;20464;-60
2023/02/05 09:45:12;;;;;;;8.50;7.07;;;2.30;99.90;;;;;;5048182;28;20575;-59
2023/02/05 09:47:46;;;;;;;9.33;6.53;;;2.40;99.90;;;;;;5047923;28;20464;-59
2023/02/05 09:50:20;;;;;;;7.10;5.13;;;2.40;99.90;;;;;;5048366;28;20981;-59
2023/02/05 09:52:50;;;;;;;10.37;5.80;;;2.40;99.90;;;;;;5047203;28;20472;-60
2023/02/05 09:55:23;;;;;;;7.97;6.33;;;2.40;99.90;;;;;;5047140;28;20534;-59
2023/02/05 09:57:54;;;;;;;5.23;4.67;;;2.30;99.90;;;;;;5047765;28;20469;-59
2023/02/05 10:00:28;;;;;;;6.67;5.60;;;2.30;99.90;;;;;;5047309;28;20563;-59
2023/02/05 10:03:01;;;;;;;6.37;5.67;;;2.30;99.90;;;;;;5047106;28;20470;-59
2023/02/05 10:05:38;;;;;;;6.80;5.50;;;2.40;99.90;;;;;;5047936;28;20490;-59
2023/02/05 10:08:17;;;;;;;7.07;5.83;;;2.40;99.90;;;;;;5047143;28;20463;-59
2023/02/05 10:10:49;;;;;;;7.20;5.67;;;2.40;99.90;;;;;;5046173;28;20469;-60
2023/02/05 10:13:35;;;;;;;7.40;5.43;;;2.40;99.90;;;;;;5047431;28;20476;-59
2023/02/05 10:16:25;;;;;;;5.37;4.73;;;2.40;99.90;;;;;;5046181;28;20480;-60
2023/02/05 10:19:23;;;;;;;4.87;4.37;;;2.70;99.90;;;;;;5047915;28;20823;-60
2023/02/05 10:22:10;;;;;;;5.70;4.80;;;2.60;99.90;;;;;;5047759;28;20568;-59
2023/02/05 10:25:08;;;;;;;9.43;5.90;;;2.50;99.90;;;;;;5047995;28;20480;-60
2023/02/05 10:27:48;;;;;;;6.50;5.23;;;2.50;99.90;;;;;;5046188;28;20483;-60
2023/02/05 10:30:21;;;;;;;6.77;5.27;;;2.70;99.90;;;;;;5047863;28;20478;-61
2023/02/05 10:32:56;;;;;;;6.47;4.73;;;2.60;99.90;;;;;;5045903;28;20480;-59
2023/02/05 10:35:34;;;;;;;5.40;4.87;;;2.60;99.90;;;;;;5047535;28;20834;-59
2023/02/05 10:38:08;;;;;;;8.13;6.27;;;2.70;99.90;;;;;;5046603;28;20824;-60
2023/02/05 10:40:40;;;;;;;10.63;6.27;;;2.60;99.90;;;;;;5047668;28;20489;-60
2023/02/05 10:43:21;;;;;;;7.03;5.00;;;2.60;99.90;;;;;;5044865;28;20520;-59
2023/02/05 10:45:51;;;;;;;7.23;4.93;;;2.60;99.90;;;;;;5047412;28;21024;-60
2023/02/05 10:48:41;;;;;;;6.10;4.70;;;2.60;99.90;;;;;;5046509;28;20478;-59
2023/02/05 10:51:12;;;;;;;6.53;4.97;;;2.60;99.90;;;;;;5047369;28;20504;-59
2023/02/05 10:53:41;;;;;;;9.97;6.73;;;2.60;99.90;;;;;;5047783;28;20518;-59
2023/02/05 10:56:16;;;;;;;10.27;7.27;;;2.70;99.90;;;;;;5047661;28;20456;-59
2023/02/05 10:58:52;;;;;;;7.23;5.87;;;2.70;99.90;;;;;;5047651;28;20540;-59
2023/02/05 11:01:22;;;;;;;5.90;5.27;;;2.70;99.90;;;;;;5046508;28;20499;-59
2023/02/05 11:03:56;;;;;;;7.83;5.70;;;2.70;99.90;;;;;;5046570;28;20985;-59
2023/02/05 11:06:27;;;;;;;14.57;7.53;;;2.80;99.90;;;;;;5046607;28;20478;-60
2023/02/05 11:08:56;;;;;;;11.90;6.67;;;2.80;99.90;;;;;;5047845;28;20483;-59
2023/02/05 11:11:27;;;;;;;12.30;6.83;;;2.80;99.90;;;;;;5047108;28;20826;-60
2023/02/05 11:13:59;;;;;;;8.43;5.93;;;2.90;99.90;;;;;;5047884;28;20478;-59
2023/02/05 11:16:37;;;;;;;8.10;5.17;;;2.90;99.90;;;;;;5047411;28;20468;-59
2023/02/05 11:19:19;;;;;;;6.80;5.63;;;2.80;99.90;;;;;;5047929;28;20480;-59
2023/02/05 11:21:50;;;;;;;7.40;5.53;;;2.80;99.90;;;;;;5047641;28;20464;-60
2023/02/05 11:24:30;;;;;;;8.50;6.87;;;2.90;99.90;;;;;;5046255;28;20459;-60
2023/02/05 11:27:23;;;;;;;13.17;8.73;;;2.90;99.90;;;;;;5046979;28;21011;-59
2023/02/05 11:29:53;;;;;;;9.67;7.67;;;3.00;99.90;;;;;;5046835;28;20909;-60
2023/02/05 11:32:23;;;;;;;10.33;7.40;;;3.20;99.90;;;;;;5045612;28;20487;-59
2023/02/05 11:35:09;;;;;;;8.93;7.20;;;3.30;99.90;;;;;;5046973;28;20551;-59
2023/02/05 11:37:39;;;;;;;9.10;7.50;;;3.20;99.90;;;;;;5047070;28;20979;-59
2023/02/05 11:40:19;;;;;;;10.80;8.33;;;3.10;99.90;;;;;;5046339;28;20472;-60
2023/02/05 11:42:56;;;;;;;10.73;7.50;;;3.10;99.90;;;;;;5046077;28;20480;-60
2023/02/05 11:45:26;;;;;;;10.17;8.50;;;3.10;99.90;;;;;;5046285;28;20551;-60
2023/02/05 11:47:55;;;;;;;9.47;7.20;;;3.10;99.90;;;;;;5047081;28;20472;-60
2023/02/05 11:50:25;;;;;;;8.17;6.27;;;3.10;99.90;;;;;;5046985;28;20829;-60
2023/02/05 11:52:55;;;;;;;6.70;5.60;;;3.10;99.90;;;;;;5047744;28;20482;-59
2023/02/05 11:55:28;;;;;;;6.97;5.23;;;3.20;99.90;;;;;;5050749;28;21074;-59
2023/02/05 11:58:03;;;;;;;6.27;5.00;;;3.10;99.90;;;;;;5049425;28;20823;-59
2023/02/05 12:00:34;;;;;;;6.23;5.37;;;3.10;99.90;;;;;;5049999;28;20965;-60
2023/02/05 12:03:15;;;;;;;8.13;4.90;;;3.10;99.90;;;;;;5049631;28;20465;-60
2023/02/05 12:05:50;;;;;;;9.73;5.20;;;3.10;99.90;;;;;;5049808;28;20475;-59
2023/02/05 12:08:29;;;;;;;7.40;4.90;;;3.30;99.90;;;;;;5049589;28;20546;-60
2023/02/05 12:11:13;;;;;;;6.87;4.90;;;3.40;99.90;;;;;;5050443;28;20474;-59
2023/02/05 12:13:56;;;;;;;6.77;5.13;;;3.50;99.90;;;;;;5049977;28;20998;-59
2023/02/05 12:16:45;;;;;;;5.97;4.53;;;3.30;99.90;;;;;;5050349;28;20466;-60
2023/02/05 12:19:19;;;;;;;6.67;4.60;;;3.30;99.90;;;;;;5049956;28;20470;-59
2023/02/05 12:21:50;;;;;;;6.73;4.70;;;3.40;99.90;;;;;;5050060;28;20458;-60
2023/02/05 12:24:46;;;;;;;7.77;5.90;;;3.30;99.90;;;;;;5048627;28;20474;-60
2023/02/05 12:27:26;;;;;;;7.50;5.50;;;3.20;99.90;;;;;;5047516;28;20860;-59
2023/02/05 12:30:10;;;;;;;8.97;5.60;;;3.20;99.90;;;;;;5049452;28;20460;-59
2023/02/05 12:32:47;;;;;;;6.63;4.90;;;3.30;99.90;;;;;;5047760;28;21030;-60
2023/02/05 12:35:28;;;;;;;7.53;5.40;;;3.40;99.90;;;;;;5050321;28;20460;-59
2023/02/05 12:38:06;;;;;;;7.30;5.93;;;3.30;99.90;;;;;;5049349;28;20463;-60
2023/02/05 12:40:47;;;;;;;7.07;5.67;;;3.30;99.90;;;;;;5049464;28;20470;-60
2023/02/05 12:43:31;;;;;;;8.17;5.40;;;3.30;99.90;;;;;;5047379;28;20462;-61
2023/02/05 12:46:08;;;;;;;8.97;5.83;;;3.50;99.90;;;;;;5048731;28;20458;-59
2023/02/05 12:48:58;;;;;;;5.30;4.73;;;3.60;99.90;;;;;;5049003;28;20465;-60
2023/02/05 12:51:37;;;;;;;6.60;5.23;;;3.70;99.90;;;;;;5049596;28;20989;-59
2023/02/05 12:54:19;;;;;;;7.03;5.40;;;3.50;99.90;;;;;;5049290;28;20480;-60
2023/02/05 12:56:57;;;;;;;7.20;5.23;;;3.50;99.90;;;;;;5049158;28;20553;-60
2023/02/05 12:59:38;;;;;;;8.30;5.90;;;3.40;99.90;;;;;;5049975;28;20469;-60
2023/02/05 13:02:16;;;;;;;7.50;5.30;;;3.60;99.90;;;;;;5048010;28;20869;-59
2023/02/05 13:04:51;;;;;;;6.40;5.03;;;3.50;99.90;;;;;;5047243;28;20491;-59
2023/02/05 13:07:29;;;;;;;5.90;4.97;;;3.50;99.90;;;;;;5048525;28;20503;-61
2023/02/05 13:10:01;;;;;;;7.70;5.60;;;3.40;99.90;;;;;;5049058;28;20822;-60
2023/02/05 13:12:34;;;;;;;7.23;4.77;;;3.30;99.90;;;;;;5048372;28;20526;-60
2023/02/05 13:15:13;;;;;;;7.23;5.27;;;3.30;99.90;;;;;;5048550;28;20467;-61
2023/02/05 13:17:52;;;;;;;7.40;5.27;;;3.30;99.90;;;;;;5049279;28;20460;-60
2023/02/05 13:28:38;;;;;;;6.83;5.23;;;3.20;99.90;;;;;;5048933;28;20474;-60
2023/02/05 13:28:51;;;;;;;8.43;4.90;;;3.30;99.90;;;;;;5048074;28;20812;-60